Terminal Aerodrome Forecast
Issued by NWS Sioux Falls, SD

Home | Current Version | Previous Version | Graphics & Text | Print | Product List | Glossary On
Versions: 1 2 3 4 5 6 7 8 9 10 11 12 13 14 15 16 17 18 19
000
FTUS43 KFSD 252325
TAFFSD
TAF
KFSD 252325Z 2600/2624 06012KT 5SM -SN BR BKN009 BKN025
     FM260200 02010KT P6SM BKN007 OVC020
     FM261000 36012KT P6SM OVC007
      TEMPO 2610/2614 5SM -SN
     FM261400 35012KT 3SM -SN OVC012
     FM261700 36011KT P6SM OVC015=

USA.gov is the U.S. government's official web portal to all federal, state and local government web resources and services.